createdAt,value
2017-12-25T00:01:25.207Z,16.62
2017-12-25T00:03:52.110Z,15.18
2017-12-25T00:06:18.955Z,15.52
2017-12-25T00:08:45.818Z,15.85
2017-12-25T00:11:12.654Z,12.40
2017-12-25T00:13:39.558Z,12.75
2017-12-25T00:16:06.398Z,13.52
2017-12-25T00:18:33.226Z,12.55
2017-12-25T00:21:00.099Z,13.13
2017-12-25T00:23:26.970Z,12.75
2017-12-25T00:25:54.606Z,12.32
2017-12-25T00:28:22.209Z,14.25
2017-12-25T00:30:49.094Z,12.18
2017-12-25T00:33:15.944Z,12.98
2017-12-25T00:35:43.540Z,13.57
2017-12-25T00:38:10.390Z,13.15
2017-12-25T00:40:37.265Z,13.88
2017-12-25T00:43:04.107Z,12.98
2017-12-25T00:45:30.988Z,13.52
2017-12-25T00:47:58.603Z,14.20
2017-12-25T00:50:25.522Z,16.15
2017-12-25T00:52:53.106Z,14.98
2017-12-25T00:55:19.933Z,14.95
2017-12-25T00:57:46.799Z,15.10
2017-12-25T01:00:13.666Z,16.30
2017-12-25T01:02:40.525Z,15.40
2017-12-25T01:05:07.394Z,15.90
2017-12-25T01:07:34.250Z,15.07
2017-12-25T01:10:01.075Z,15.43
2017-12-25T01:12:28.714Z,15.13
2017-12-25T01:14:55.568Z,15.15
2017-12-25T01:17:22.407Z,14.73
2017-12-25T01:19:49.255Z,14.15
2017-12-25T01:22:16.876Z,13.65
2017-12-25T01:24:43.702Z,13.65
2017-12-25T01:27:10.573Z,16.40
2017-12-25T01:29:37.425Z,13.88
2017-12-25T01:32:04.251Z,12.95
2017-12-25T01:34:31.102Z,12.35
2017-12-25T01:36:57.934Z,12.10
2017-12-25T01:39:24.753Z,11.15
2017-12-25T01:41:51.630Z,11.32
2017-12-25T01:44:18.487Z,10.80
2017-12-25T01:46:57.600Z,11.43
2017-12-25T01:49:24.425Z,10.32
2017-12-25T01:51:51.306Z,13.35
2017-12-25T01:54:18.266Z,14.10
2017-12-25T01:56:45.908Z,12.75
2017-12-25T01:59:13.779Z,14.43
2017-12-25T02:01:46.760Z,12.52
2017-12-25T02:04:15.501Z,13.73
2017-12-25T02:09:39.462Z,10.93
2017-12-25T02:12:07.123Z,10.85
2017-12-25T02:14:34.766Z,11.75
2017-12-25T02:17:01.638Z,10.93
2017-12-25T02:19:28.496Z,10.95
2017-12-25T02:21:56.509Z,10.18
2017-12-25T02:24:23.362Z,10.90
2017-12-25T02:26:50.238Z,10.00
2017-12-25T02:29:17.890Z,9.65
2017-12-25T02:31:44.767Z,10.93
2017-12-25T02:34:11.638Z,9.48
2017-12-25T02:36:38.546Z,10.55
2017-12-25T02:39:05.686Z,10.23
2017-12-25T02:41:32.563Z,10.50
2017-12-25T02:43:59.434Z,9.32
2017-12-25T02:46:26.274Z,9.95
2017-12-25T02:48:53.118Z,8.73
2017-12-25T02:51:19.984Z,9.50
2017-12-25T02:53:46.862Z,7.95
2017-12-25T02:56:13.730Z,9.07
2017-12-25T02:58:40.594Z,9.27
2017-12-25T03:01:07.442Z,8.98
2017-12-25T03:03:34.323Z,7.95
2017-12-25T03:06:01.275Z,7.87
2017-12-25T03:08:28.106Z,7.37
2017-12-25T03:10:55.748Z,6.95
2017-12-25T03:13:22.666Z,7.15
2017-12-25T03:15:49.554Z,7.85
2017-12-25T03:18:16.458Z,7.03
2017-12-25T03:20:43.310Z,6.03
2017-12-25T03:23:10.142Z,5.85
2017-12-25T03:25:37.049Z,5.28
2017-12-25T03:28:03.916Z,5.68
2017-12-25T03:30:30.826Z,5.37
2017-12-25T03:32:57.698Z,5.68
2017-12-25T03:35:24.565Z,6.18
2017-12-25T03:37:51.454Z,5.45
2017-12-25T03:40:18.317Z,5.00
2017-12-25T03:42:45.163Z,5.87
2017-12-25T03:45:12.051Z,5.85
2017-12-25T03:47:38.894Z,5.18
2017-12-25T03:50:05.777Z,4.97
2017-12-25T03:52:32.669Z,4.18
2017-12-25T03:54:59.478Z,3.80
2017-12-25T03:57:26.355Z,4.20
2017-12-25T03:59:53.212Z,4.03
2017-12-25T04:02:20.055Z,4.32
2017-12-25T04:04:47.682Z,4.47
2017-12-25T04:07:14.535Z,3.47
2017-12-25T04:09:41.401Z,4.03
2017-12-25T04:12:08.294Z,4.93
2017-12-25T04:14:35.173Z,3.72
2017-12-25T04:17:02.046Z,3.95
2017-12-25T04:19:28.923Z,4.45
2017-12-25T04:21:55.846Z,4.95
2017-12-25T04:24:22.713Z,4.28
2017-12-25T04:26:49.538Z,4.15
2017-12-25T04:29:16.418Z,4.12
2017-12-25T04:31:44.275Z,4.45
2017-12-25T04:34:11.152Z,4.62
2017-12-25T04:36:38.027Z,4.50
2017-12-25T04:39:04.889Z,4.60
2017-12-25T04:41:31.757Z,5.37
2017-12-25T04:43:58.630Z,4.78
2017-12-25T04:46:26.254Z,4.30
2017-12-25T04:48:53.098Z,5.43
2017-12-25T04:51:21.062Z,4.95
2017-12-25T04:53:47.878Z,4.20
2017-12-25T04:56:14.720Z,4.90
2017-12-25T04:58:41.591Z,4.40
2017-12-25T05:01:08.447Z,4.55
2017-12-25T05:03:35.306Z,4.62
2017-12-25T05:06:02.159Z,4.25
2017-12-25T05:08:29.048Z,4.75
2017-12-25T05:10:57.686Z,4.22
2017-12-25T05:13:24.575Z,5.60
2017-12-25T05:15:51.534Z,5.75
2017-12-25T05:18:18.386Z,5.47
2017-12-25T05:20:45.275Z,5.80
2017-12-25T05:23:12.877Z,7.75
2017-12-25T05:25:39.722Z,7.57
2017-12-25T05:28:06.601Z,7.40
2017-12-25T05:30:33.495Z,8.35
2017-12-25T05:33:00.323Z,8.25
2017-12-25T05:35:27.173Z,8.32
2017-12-25T05:37:54.077Z,8.35
2017-12-25T05:40:20.942Z,9.77
2017-12-25T05:42:48.786Z,8.77
2017-12-25T05:45:15.653Z,8.80
2017-12-25T05:47:42.528Z,9.50
2017-12-25T05:50:09.363Z,9.07
2017-12-25T05:52:36.227Z,10.20
2017-12-25T05:55:03.102Z,9.98
2017-12-25T05:57:29.954Z,9.25
2017-12-25T05:59:56.885Z,9.07
2017-12-25T06:02:23.742Z,9.50
2017-12-25T06:04:50.620Z,8.77
2017-12-25T06:07:17.491Z,9.75
2017-12-25T06:09:44.333Z,10.50
2017-12-25T06:12:11.208Z,10.27
2017-12-25T06:14:38.126Z,10.38
2017-12-25T06:17:05.790Z,10.38
2017-12-25T06:19:32.699Z,9.75
2017-12-25T06:21:59.622Z,10.25
2017-12-25T06:24:26.486Z,11.02
2017-12-25T06:26:54.328Z,10.00
2017-12-25T06:29:21.939Z,11.38
2017-12-25T06:31:48.843Z,10.95
2017-12-25T06:34:16.422Z,11.43
2017-12-25T06:36:43.270Z,11.82
2017-12-25T06:39:10.155Z,13.10
2017-12-25T06:41:37.006Z,13.25
2017-12-25T06:44:03.859Z,13.65
2017-12-25T06:46:30.714Z,12.85
2017-12-25T06:48:57.550Z,11.50
2017-12-25T06:51:26.364Z,13.00
2017-12-25T06:53:53.246Z,14.05
2017-12-25T06:56:20.116Z,14.30
2017-12-25T06:58:47.211Z,13.90
2017-12-25T07:01:14.091Z,14.20
2017-12-25T07:03:41.392Z,15.23
2017-12-25T07:06:09.011Z,15.45
2017-12-25T07:08:36.613Z,14.65
2017-12-25T07:11:04.202Z,14.82
2017-12-25T07:13:31.047Z,16.40
2017-12-25T07:15:57.922Z,16.17
2017-12-25T07:18:24.734Z,17.90
2017-12-25T07:20:51.605Z,16.77
2017-12-25T07:23:18.492Z,16.95
2017-12-25T07:25:45.347Z,15.07
2017-12-25T07:28:12.214Z,16.37
2017-12-25T07:30:39.121Z,16.12
2017-12-25T07:33:06.048Z,17.23
2017-12-25T07:35:32.979Z,16.45
2017-12-25T07:37:59.870Z,17.45
2017-12-25T07:40:28.183Z,16.80
2017-12-25T07:42:55.639Z,18.00
2017-12-25T07:45:22.487Z,17.48
2017-12-25T07:47:49.379Z,15.80
2017-12-25T07:50:16.251Z,18.42
2017-12-25T07:52:43.127Z,16.20
2017-12-25T07:55:10.004Z,15.95
2017-12-25T07:57:36.867Z,18.35
2017-12-25T08:00:03.713Z,20.40
2017-12-25T08:02:31.364Z,19.77
2017-12-25T08:04:58.271Z,19.35
2017-12-25T08:07:25.426Z,20.73
2017-12-25T08:09:52.336Z,19.90
2017-12-25T08:12:19.194Z,18.77
2017-12-25T08:14:46.078Z,22.55
2017-12-25T08:17:13.647Z,21.37
2017-12-25T08:19:40.490Z,20.15
2017-12-25T08:22:07.355Z,20.52
2017-12-25T08:24:34.164Z,19.87
2017-12-25T08:27:01.023Z,17.33
2017-12-25T08:29:27.871Z,16.55
2017-12-25T08:31:54.823Z,17.12
2017-12-25T08:34:21.679Z,18.30
2017-12-25T08:36:48.790Z,14.87
2017-12-25T08:39:15.766Z,16.48
2017-12-25T08:41:42.704Z,14.10
2017-12-25T08:44:09.615Z,16.50
2017-12-25T08:46:37.195Z,15.50
2017-12-25T08:49:04.368Z,16.05
2017-12-25T08:51:31.323Z,17.42
2017-12-25T08:53:59.187Z,18.42
2017-12-25T08:56:26.228Z,17.55
2017-12-25T08:58:53.103Z,19.60
2017-12-25T09:01:19.982Z,17.10
2017-12-25T09:03:47.591Z,17.20
2017-12-25T09:06:14.497Z,18.25
2017-12-25T09:08:42.199Z,18.08
2017-12-25T09:11:09.274Z,18.40
2017-12-25T09:13:37.059Z,15.52
2017-12-25T09:16:04.704Z,17.20
2017-12-25T09:18:31.572Z,15.45
2017-12-25T09:20:58.492Z,15.65
2017-12-25T09:23:26.147Z,17.27
2017-12-25T09:25:53.031Z,19.30
2017-12-25T09:28:19.878Z,18.87
2017-12-25T09:30:46.755Z,20.67
2017-12-25T09:33:13.625Z,17.70
2017-12-25T09:35:40.487Z,18.55
2017-12-25T09:38:07.351Z,18.75
2017-12-25T09:40:34.512Z,18.15
2017-12-25T09:43:02.195Z,21.00
2017-12-25T09:45:29.050Z,20.40
2017-12-25T09:47:56.939Z,20.40
2017-12-25T09:50:23.851Z,17.30
2017-12-25T09:52:50.879Z,18.55
2017-12-25T09:55:17.740Z,16.98
2017-12-25T09:57:44.560Z,17.70
2017-12-25T10:00:11.648Z,17.42
2017-12-25T10:02:38.564Z,15.95
2017-12-25T10:05:05.464Z,16.23
2017-12-25T10:07:33.478Z,16.62
2017-12-25T10:10:01.422Z,17.35
2017-12-25T10:12:28.511Z,15.25
2017-12-25T10:14:55.583Z,17.40
2017-12-25T10:17:23.187Z,17.10
2017-12-25T10:19:50.145Z,17.25
2017-12-25T10:22:17.267Z,17.00
2017-12-25T10:24:44.210Z,16.10
2017-12-25T10:27:11.135Z,19.45
2017-12-25T10:29:38.038Z,15.57
2017-12-25T10:32:04.898Z,14.80
2017-12-25T10:34:31.742Z,14.30
2017-12-25T10:36:58.763Z,16.07
2017-12-25T10:39:25.740Z,15.30
2017-12-25T10:41:53.385Z,16.73
2017-12-25T10:44:20.442Z,15.77
2017-12-25T10:46:47.421Z,15.17
2017-12-25T10:49:16.154Z,16.47
2017-12-25T10:51:43.179Z,16.17
2017-12-25T10:54:10.094Z,15.37
2017-12-25T10:56:36.938Z,15.80
2017-12-25T10:59:04.947Z,17.20
2017-12-25T11:01:32.076Z,17.10
2017-12-25T11:03:58.975Z,15.60
2017-12-25T11:06:26.019Z,14.47
2017-12-25T11:08:53.051Z,16.90
2017-12-25T11:11:20.780Z,17.17
2017-12-25T11:13:47.875Z,16.73
2017-12-25T11:16:14.793Z,16.70
2017-12-25T11:18:42.428Z,16.37
2017-12-25T11:21:09.403Z,16.97
2017-12-25T11:23:36.330Z,17.30
2017-12-25T11:26:03.377Z,16.30
2017-12-25T11:28:30.395Z,18.67
2017-12-25T11:30:58.015Z,17.13
2017-12-25T11:33:24.923Z,17.50
2017-12-25T11:35:51.827Z,16.77
2017-12-25T11:38:18.670Z,17.40
2017-12-25T11:40:46.550Z,18.60
2017-12-25T11:43:13.527Z,19.13
2017-12-25T11:45:40.634Z,19.70
2017-12-25T11:48:07.552Z,17.87
2017-12-25T11:50:34.386Z,17.70
2017-12-25T11:53:01.238Z,17.10
2017-12-25T11:55:28.459Z,17.40
2017-12-25T11:57:55.359Z,15.77
2017-12-25T12:00:23.145Z,17.37
2017-12-25T12:02:50.898Z,17.13
2017-12-25T12:05:17.983Z,16.50
2017-12-25T12:07:45.690Z,15.70
2017-12-25T12:10:12.543Z,16.13
2017-12-25T12:12:40.163Z,17.47
2017-12-25T12:15:07.288Z,15.27
2017-12-25T12:17:34.326Z,15.90
2017-12-25T12:20:01.899Z,14.33
2017-12-25T12:22:28.779Z,15.83
2017-12-25T12:24:55.635Z,15.53
2017-12-25T12:27:23.261Z,15.17
2017-12-25T12:29:50.090Z,15.30
2017-12-25T12:32:16.935Z,14.00
2017-12-25T12:34:43.778Z,14.53
2017-12-25T12:37:10.696Z,13.97
2017-12-25T12:39:38.282Z,16.87
2017-12-25T12:42:05.170Z,15.10
2017-12-25T12:44:32.044Z,15.07
2017-12-25T12:46:59.199Z,16.70
2017-12-25T12:49:26.074Z,15.50
2017-12-25T12:51:52.964Z,16.83
2017-12-25T12:54:20.754Z,14.87
2017-12-25T12:56:47.761Z,14.87
2017-12-25T12:59:14.913Z,15.93
2017-12-25T13:01:42.045Z,14.90
2017-12-25T13:04:09.114Z,14.53
2017-12-25T13:06:37.067Z,16.50
2017-12-25T13:09:03.943Z,17.97
2017-12-25T13:11:30.826Z,16.00
2017-12-25T13:13:57.851Z,16.73
2017-12-25T13:16:25.783Z,15.40
2017-12-25T13:18:53.426Z,17.43
2017-12-25T13:21:20.586Z,17.20
2017-12-25T13:23:48.566Z,17.40
2017-12-25T13:26:15.399Z,18.23
2017-12-25T13:28:43.210Z,17.73
2017-12-25T13:31:10.511Z,16.40
2017-12-25T13:33:37.370Z,17.93
2017-12-25T13:36:04.347Z,18.60
2017-12-25T13:38:31.198Z,16.53
2017-12-25T13:40:58.238Z,18.03
2017-12-25T13:43:25.422Z,18.40
2017-12-25T13:45:52.690Z,16.73
2017-12-25T13:48:20.486Z,17.27
2017-12-25T13:50:48.371Z,16.83
2017-12-25T13:53:15.446Z,17.83
2017-12-25T13:55:42.406Z,16.93
2017-12-25T13:58:09.455Z,17.20
2017-12-25T14:00:36.546Z,18.27
2017-12-25T14:03:03.486Z,16.80
2017-12-25T14:05:30.715Z,16.73
2017-12-25T14:07:57.694Z,16.67
2017-12-25T14:10:24.711Z,16.50
2017-12-25T14:12:51.720Z,18.77
2017-12-25T14:15:19.387Z,18.83
2017-12-25T14:17:54.295Z,18.60
2017-12-25T14:36:54.882Z,14.67
2017-12-25T14:39:21.772Z,15.93
2017-12-25T14:41:48.858Z,17.00
2017-12-25T14:44:15.718Z,17.57
2017-12-25T14:46:42.611Z,15.53
2017-12-25T14:49:09.783Z,15.20
2017-12-25T14:51:36.753Z,15.53
2017-12-25T14:54:03.615Z,16.40
2017-12-25T14:56:30.638Z,16.30
2017-12-25T14:58:57.623Z,16.30
2017-12-25T15:01:25.218Z,15.65
2017-12-25T15:03:52.470Z,17.08
2017-12-25T15:06:19.479Z,17.12
2017-12-25T15:08:46.490Z,15.85
2017-12-25T15:11:13.483Z,16.08
2017-12-25T15:13:40.457Z,17.75
2017-12-25T15:16:07.515Z,16.73
2017-12-25T15:18:34.584Z,17.73
2017-12-25T15:21:02.218Z,18.33
2017-12-25T15:23:29.302Z,18.12
2017-12-25T15:25:57.104Z,18.92
2017-12-25T15:28:24.843Z,18.45
2017-12-25T15:30:51.806Z,20.48
2017-12-25T15:33:19.613Z,20.10
2017-12-25T15:35:46.609Z,23.05
2017-12-25T15:38:13.507Z,26.30
2017-12-25T15:40:40.643Z,27.45
2017-12-25T15:43:07.721Z,28.12
2017-12-25T15:45:35.474Z,27.65
2017-12-25T15:48:02.408Z,24.77
2017-12-25T15:50:29.603Z,25.73
2017-12-25T15:52:56.626Z,25.33
2017-12-25T15:55:23.539Z,24.67
2017-12-25T15:57:50.432Z,27.85
2017-12-25T16:00:18.082Z,39.67
2017-12-25T16:02:45.192Z,45.47
2017-12-25T16:05:12.189Z,42.80
2017-12-25T16:07:39.155Z,39.33
2017-12-25T16:10:06.883Z,40.38
2017-12-25T16:12:33.991Z,38.83
2017-12-25T16:15:01.607Z,40.10
2017-12-25T16:17:29.360Z,34.80
2017-12-25T16:19:56.603Z,31.60
2017-12-25T16:22:23.522Z,34.42
2017-12-25T16:24:50.490Z,33.35
2017-12-25T16:27:17.639Z,29.73
2017-12-25T16:29:44.600Z,29.60
2017-12-25T16:32:11.716Z,31.10
2017-12-25T16:34:38.606Z,31.87
2017-12-25T16:37:05.476Z,32.05
2017-12-25T16:39:33.598Z,31.65
2017-12-25T16:42:03.815Z,30.90
2017-12-25T16:44:31.551Z,33.47
2017-12-25T16:46:58.528Z,35.92
2017-12-25T16:49:26.372Z,37.10
2017-12-25T16:51:54.247Z,31.40
2017-12-25T16:54:21.247Z,35.85
2017-12-25T16:56:48.834Z,34.70
2017-12-25T16:59:15.843Z,36.03
2017-12-25T17:01:42.868Z,33.78
2017-12-25T17:04:09.774Z,37.60
2017-12-25T17:06:37.599Z,37.92
2017-12-25T17:09:05.505Z,40.65
2017-12-25T17:11:32.822Z,39.33
2017-12-25T17:14:10.972Z,39.03
2017-12-25T17:31:37.559Z,40.90
2017-12-25T17:34:04.479Z,40.10
2017-12-25T17:36:48.415Z,40.25
2017-12-25T17:39:39.688Z,37.03
2017-12-25T17:42:07.392Z,37.63
2017-12-25T17:44:34.368Z,36.08
2017-12-25T17:47:02.174Z,37.72
2017-12-25T17:49:29.867Z,36.33
2017-12-25T17:51:56.735Z,37.35
2017-12-25T17:54:23.627Z,39.83
2017-12-25T17:56:50.782Z,37.92
2017-12-25T17:59:17.878Z,38.88
2017-12-25T18:01:44.738Z,40.22
2017-12-25T18:04:11.923Z,41.30
2017-12-25T18:06:39.899Z,37.58
2017-12-25T18:09:06.754Z,36.58
2017-12-25T18:11:33.990Z,36.97
2017-12-25T18:14:02.045Z,37.10
2017-12-25T18:16:29.335Z,34.90
2017-12-25T18:18:56.315Z,37.50
2017-12-25T18:21:24.226Z,37.63
2017-12-25T18:23:52.087Z,38.83
2017-12-25T18:26:19.039Z,38.00
2017-12-25T18:28:48.078Z,36.90
2017-12-25T18:31:16.026Z,37.88
2017-12-25T18:33:42.989Z,37.38
2017-12-25T18:36:10.546Z,39.70
2017-12-25T18:38:37.535Z,38.03
2017-12-25T18:41:05.182Z,40.08
2017-12-25T18:43:33.079Z,40.95
2017-12-25T18:46:00.938Z,41.22
2017-12-25T18:48:27.952Z,39.55
2017-12-25T18:50:55.651Z,39.35
2017-12-25T18:53:22.728Z,37.33
2017-12-25T18:55:49.788Z,35.67
2017-12-25T18:58:17.531Z,40.50
2017-12-25T19:00:45.239Z,39.35
2017-12-25T19:03:12.842Z,37.80
2017-12-25T19:05:39.699Z,35.75
2017-12-25T19:08:06.722Z,34.80
2017-12-25T19:10:33.660Z,36.38
2017-12-25T19:13:01.437Z,33.03
2017-12-25T19:15:28.398Z,33.35
2017-12-25T19:17:55.287Z,34.10
2017-12-25T19:20:22.902Z,34.60
2017-12-25T19:22:49.808Z,35.35
2017-12-25T19:25:16.965Z,33.63
2017-12-25T19:27:43.863Z,34.08
2017-12-25T19:30:11.746Z,32.90
2017-12-25T19:32:38.650Z,35.67
2017-12-25T19:35:05.499Z,35.53
2017-12-25T19:37:32.654Z,31.90
2017-12-25T19:39:59.555Z,33.25
2017-12-25T19:42:26.612Z,34.13
2017-12-25T19:44:54.414Z,40.05
2017-12-25T19:47:21.326Z,40.20
2017-12-25T19:49:49.340Z,39.45
2017-12-25T19:52:17.682Z,42.72
2017-12-25T19:54:44.711Z,41.60
2017-12-25T19:57:11.779Z,40.28
2017-12-25T19:59:39.398Z,39.28
2017-12-25T20:02:06.403Z,35.67
2017-12-25T20:04:33.379Z,36.30
2017-12-25T20:07:00.415Z,34.72
2017-12-25T20:09:27.546Z,35.30
2017-12-25T20:11:54.456Z,32.15
2017-12-25T20:14:22.151Z,31.52
2017-12-25T20:16:49.190Z,30.00
2017-12-25T20:19:20.067Z,27.42
2017-12-25T20:21:48.020Z,28.62
2017-12-25T20:24:15.016Z,27.27
2017-12-25T20:26:42.099Z,26.45
2017-12-25T20:29:09.030Z,28.85
2017-12-25T20:31:35.995Z,27.55
2017-12-25T20:34:28.079Z,29.50
2017-12-25T20:37:24.160Z,26.45
2017-12-25T20:39:51.332Z,27.02
2017-12-25T20:42:19.402Z,24.90
2017-12-25T20:44:47.111Z,24.63
2017-12-25T20:47:14.164Z,22.00
2017-12-25T20:49:50.193Z,24.35
2017-12-25T20:52:17.175Z,21.60
2017-12-25T20:54:44.129Z,23.67
2017-12-25T20:57:11.899Z,28.02
2017-12-25T20:59:38.798Z,31.67
2017-12-25T21:02:05.811Z,33.55
2017-12-25T21:04:39.251Z,31.95
2017-12-25T21:20:36.002Z,30.35
2017-12-25T21:23:03.579Z,32.78
2017-12-25T21:25:31.719Z,32.47
2017-12-25T21:27:59.263Z,31.48
2017-12-25T21:30:26.251Z,34.15
2017-12-25T21:32:53.290Z,35.47
2017-12-25T21:35:20.259Z,34.42
2017-12-25T21:37:47.190Z,41.28
2017-12-25T21:40:15.549Z,41.83
2017-12-25T21:42:42.587Z,40.72
2017-12-25T21:45:09.503Z,41.92
2017-12-25T21:47:36.458Z,41.08
2017-12-25T21:50:03.356Z,41.10
2017-12-25T21:52:30.370Z,38.33
2017-12-25T21:54:57.363Z,39.83
2017-12-25T21:57:24.302Z,41.00
2017-12-25T21:59:51.391Z,35.50
2017-12-25T22:02:18.456Z,36.45
2017-12-25T22:04:45.579Z,34.80
2017-12-25T22:07:12.479Z,33.25
2017-12-25T22:09:39.669Z,35.55
2017-12-25T22:12:06.743Z,33.45
2017-12-25T22:14:33.634Z,34.33
2017-12-25T22:17:00.721Z,34.72
2017-12-25T22:19:27.706Z,32.97
2017-12-25T22:21:54.757Z,33.65
2017-12-25T22:24:21.706Z,33.78
2017-12-25T22:26:50.036Z,33.35
2017-12-25T22:29:17.051Z,35.10
2017-12-25T22:31:44.118Z,31.40
2017-12-25T22:34:11.131Z,32.92
2017-12-25T22:36:40.011Z,31.87
2017-12-25T22:39:07.103Z,34.78
2017-12-25T22:41:34.114Z,32.80
2017-12-25T22:44:01.132Z,31.83
2017-12-25T22:46:28.041Z,31.83
2017-12-25T22:48:55.259Z,30.80
2017-12-25T22:51:22.270Z,30.92
2017-12-25T22:53:49.127Z,28.20
2017-12-25T22:56:16.266Z,27.30
2017-12-25T22:58:43.347Z,25.77
2017-12-25T23:01:10.802Z,27.87
2017-12-25T23:03:37.708Z,24.65
2017-12-25T23:06:04.522Z,26.05
2017-12-25T23:08:32.572Z,25.75
2017-12-25T23:11:02.463Z,27.70
2017-12-25T23:13:29.519Z,28.10
2017-12-25T23:15:56.742Z,28.15
2017-12-25T23:18:23.827Z,26.87
2017-12-25T23:20:50.782Z,26.50
2017-12-25T23:23:18.023Z,26.87
2017-12-25T23:25:45.242Z,25.27
2017-12-25T23:28:13.429Z,26.08
2017-12-25T23:30:40.586Z,21.92
2017-12-25T23:33:07.584Z,25.62
2017-12-25T23:35:35.487Z,26.27
2017-12-25T23:38:04.103Z,28.80
2017-12-25T23:40:31.210Z,31.50
2017-12-25T23:42:58.288Z,31.52
2017-12-25T23:45:25.334Z,30.50
2017-12-25T23:47:53.278Z,33.58
2017-12-25T23:50:21.307Z,28.23
2017-12-25T23:52:48.257Z,30.65
2017-12-25T23:55:16.274Z,31.23
2017-12-25T23:57:43.471Z,28.50
